sensor_id;sensor_type;location;lat;lon;timestamp;pressure;altitude;pressure_sealevel;temperature
76895;BMP280;65855;42.030;13.078;2023-06-10T00:01:44;93577.25;;;17.11
76895;BMP280;65855;42.030;13.078;2023-06-10T00:04:15;93581.38;;;17.16
76895;BMP280;65855;42.030;13.078;2023-06-10T00:06:43;93584.66;;;17.16
76895;BMP280;65855;42.030;13.078;2023-06-10T00:09:09;93576.72;;;17.18
76895;BMP280;65855;42.030;13.078;2023-06-10T00:11:36;93579.56;;;17.16
76895;BMP280;65855;42.030;13.078;2023-06-10T00:14:02;93581.38;;;17.16
76895;BMP280;65855;42.030;13.078;2023-06-10T00:16:27;93586.19;;;17.17
76895;BMP280;65855;42.030;13.078;2023-06-10T00:18:53;93581.19;;;17.21
76895;BMP280;65855;42.030;13.078;2023-06-10T00:21:21;93582.66;;;17.22
76895;BMP280;65855;42.030;13.078;2023-06-10T00:23:47;93575.88;;;17.26
76895;BMP280;65855;42.030;13.078;2023-06-10T00:26:12;93575.56;;;17.27
76895;BMP280;65855;42.030;13.078;2023-06-10T00:28:37;93571.19;;;17.28
76895;BMP280;65855;42.030;13.078;2023-06-10T00:31:03;93574.16;;;17.30
76895;BMP280;65855;42.030;13.078;2023-06-10T00:33:29;93568.31;;;17.29
76895;BMP280;65855;42.030;13.078;2023-06-10T00:35:55;93572.69;;;17.29
76895;BMP280;65855;42.030;13.078;2023-06-10T00:38:20;93569.06;;;17.30
76895;BMP280;65855;42.030;13.078;2023-06-10T00:40:46;93573.75;;;17.28
76895;BMP280;65855;42.030;13.078;2023-06-10T00:43:11;93574.50;;;17.28
76895;BMP280;65855;42.030;13.078;2023-06-10T00:45:37;93565.56;;;17.22
76895;BMP280;65855;42.030;13.078;2023-06-10T00:48:03;93565.16;;;17.20
76895;BMP280;65855;42.030;13.078;2023-06-10T00:50:29;93558.44;;;17.16
76895;BMP280;65855;42.030;13.078;2023-06-10T00:52:56;93556.94;;;17.03
76895;BMP280;65855;42.030;13.078;2023-06-10T00:55:22;93559.19;;;16.84
76895;BMP280;65855;42.030;13.078;2023-06-10T00:57:48;93562.91;;;16.75
76895;BMP280;65855;42.030;13.078;2023-06-10T01:00:15;93557.78;;;16.63
76895;BMP280;65855;42.030;13.078;2023-06-10T01:02:41;93556.94;;;16.59
76895;BMP280;65855;42.030;13.078;2023-06-10T01:05:08;93560.81;;;16.57
76895;BMP280;65855;42.030;13.078;2023-06-10T01:07:38;93555.31;;;16.55
76895;BMP280;65855;42.030;13.078;2023-06-10T01:10:11;93552.88;;;16.58
76895;BMP280;65855;42.030;13.078;2023-06-10T01:12:56;93551.00;;;16.67
76895;BMP280;65855;42.030;13.078;2023-06-10T01:15:24;93555.63;;;16.54
76895;BMP280;65855;42.030;13.078;2023-06-10T01:17:58;93555.44;;;16.38
76895;BMP280;65855;42.030;13.078;2023-06-10T01:20:32;93550.56;;;16.34
76895;BMP280;65855;42.030;13.078;2023-06-10T01:23:01;93549.50;;;16.35
76895;BMP280;65855;42.030;13.078;2023-06-10T01:25:28;93543.53;;;16.31
76895;BMP280;65855;42.030;13.078;2023-06-10T01:28:03;93548.06;;;16.25
76895;BMP280;65855;42.030;13.078;2023-06-10T01:31:23;93543.72;;;16.26
76895;BMP280;65855;42.030;13.078;2023-06-10T01:33:29;93539.38;;;16.46
76895;BMP280;65855;42.030;13.078;2023-06-10T01:35:57;93540.34;;;16.54
76895;BMP280;65855;42.030;13.078;2023-06-10T01:38:25;93539.53;;;16.61
76895;BMP280;65855;42.030;13.078;2023-06-10T01:40:53;93540.41;;;16.34
76895;BMP280;65855;42.030;13.078;2023-06-10T01:43:20;93538.41;;;16.19
76895;BMP280;65855;42.030;13.078;2023-06-10T01:45:46;93536.91;;;16.18
76895;BMP280;65855;42.030;13.078;2023-06-10T01:48:11;93542.44;;;16.20
76895;BMP280;65855;42.030;13.078;2023-06-10T01:50:37;93528.97;;;16.19
76895;BMP280;65855;42.030;13.078;2023-06-10T01:53:04;93534.56;;;16.13
76895;BMP280;65855;42.030;13.078;2023-06-10T01:55:30;93522.63;;;16.05
76895;BMP280;65855;42.030;13.078;2023-06-10T01:57:55;93526.38;;;16.08
76895;BMP280;65855;42.030;13.078;2023-06-10T02:00:21;93530.94;;;16.14
76895;BMP280;65855;42.030;13.078;2023-06-10T02:02:46;93523.53;;;16.09
76895;BMP280;65855;42.030;13.078;2023-06-10T02:05:12;93525.75;;;16.11
76895;BMP280;65855;42.030;13.078;2023-06-10T02:07:37;93521.84;;;16.13
76895;BMP280;65855;42.030;13.078;2023-06-10T02:10:04;93521.56;;;16.14
76895;BMP280;65855;42.030;13.078;2023-06-10T02:12:29;93512.63;;;16.09
76895;BMP280;65855;42.030;13.078;2023-06-10T02:14:55;93519.75;;;16.15
76895;BMP280;65855;42.030;13.078;2023-06-10T02:17:20;93515.50;;;16.19
76895;BMP280;65855;42.030;13.078;2023-06-10T02:19:45;93515.97;;;16.21
76895;BMP280;65855;42.030;13.078;2023-06-10T02:22:19;93512.97;;;16.19
76895;BMP280;65855;42.030;13.078;2023-06-10T02:24:44;93505.72;;;16.09
76895;BMP280;65855;42.030;13.078;2023-06-10T02:27:09;93500.66;;;16.01
76895;BMP280;65855;42.030;13.078;2023-06-10T02:29:35;93497.19;;;16.05
76895;BMP280;65855;42.030;13.078;2023-06-10T02:32:02;93485.88;;;15.83
76895;BMP280;65855;42.030;13.078;2023-06-10T02:34:28;93479.25;;;15.70
76895;BMP280;65855;42.030;13.078;2023-06-10T02:36:53;93480.41;;;15.72
76895;BMP280;65855;42.030;13.078;2023-06-10T02:39:19;93476.38;;;15.71
76895;BMP280;65855;42.030;13.078;2023-06-10T02:41:45;93475.00;;;15.74
76895;BMP280;65855;42.030;13.078;2023-06-10T02:44:10;93472.53;;;15.65
76895;BMP280;65855;42.030;13.078;2023-06-10T02:46:35;93475.06;;;15.65
76895;BMP280;65855;42.030;13.078;2023-06-10T02:49:01;93475.50;;;15.47
76895;BMP280;65855;42.030;13.078;2023-06-10T02:51:27;93479.09;;;15.66
76895;BMP280;65855;42.030;13.078;2023-06-10T02:53:52;93467.75;;;15.64
76895;BMP280;65855;42.030;13.078;2023-06-10T02:56:18;93468.06;;;15.62
76895;BMP280;65855;42.030;13.078;2023-06-10T02:58:44;93484.41;;;15.53
76895;BMP280;65855;42.030;13.078;2023-06-10T03:01:09;93482.75;;;15.57
76895;BMP280;65855;42.030;13.078;2023-06-10T03:03:35;93484.06;;;15.63
76895;BMP280;65855;42.030;13.078;2023-06-10T03:06:02;93488.38;;;15.62
76895;BMP280;65855;42.030;13.078;2023-06-10T03:08:28;93493.47;;;15.62
76895;BMP280;65855;42.030;13.078;2023-06-10T03:10:53;93500.22;;;15.59
76895;BMP280;65855;42.030;13.078;2023-06-10T03:13:19;93495.81;;;15.47
76895;BMP280;65855;42.030;13.078;2023-06-10T03:15:44;93497.66;;;15.38
76895;BMP280;65855;42.030;13.078;2023-06-10T03:18:11;93494.97;;;15.43
76895;BMP280;65855;42.030;13.078;2023-06-10T03:20:36;93495.22;;;15.50
76895;BMP280;65855;42.030;13.078;2023-06-10T03:23:04;93500.94;;;15.39
76895;BMP280;65855;42.030;13.078;2023-06-10T03:25:32;93497.91;;;15.25
76895;BMP280;65855;42.030;13.078;2023-06-10T03:27:57;93495.75;;;15.07
76895;BMP280;65855;42.030;13.078;2023-06-10T03:30:22;93501.97;;;15.18
76895;BMP280;65855;42.030;13.078;2023-06-10T03:32:48;93507.06;;;15.18
76895;BMP280;65855;42.030;13.078;2023-06-10T03:35:14;93506.69;;;15.28
76895;BMP280;65855;42.030;13.078;2023-06-10T03:37:40;93504.63;;;15.21
76895;BMP280;65855;42.030;13.078;2023-06-10T03:40:07;93511.16;;;14.94
76895;BMP280;65855;42.030;13.078;2023-06-10T03:42:34;93506.38;;;14.84
76895;BMP280;65855;42.030;13.078;2023-06-10T03:45:00;93500.72;;;14.79
76895;BMP280;65855;42.030;13.078;2023-06-10T03:47:25;93504.03;;;14.79
76895;BMP280;65855;42.030;13.078;2023-06-10T03:49:51;93501.66;;;14.74
76895;BMP280;65855;42.030;13.078;2023-06-10T03:52:17;93498.53;;;14.69
76895;BMP280;65855;42.030;13.078;2023-06-10T03:54:42;93494.53;;;14.60
76895;BMP280;65855;42.030;13.078;2023-06-10T03:57:08;93501.44;;;14.42
76895;BMP280;65855;42.030;13.078;2023-06-10T03:59:33;93503.69;;;14.36
76895;BMP280;65855;42.030;13.078;2023-06-10T04:01:59;93495.06;;;14.28
76895;BMP280;65855;42.030;13.078;2023-06-10T04:04:25;93502.50;;;14.25
76895;BMP280;65855;42.030;13.078;2023-06-10T04:06:50;93491.81;;;14.03
76895;BMP280;65855;42.030;13.078;2023-06-10T04:09:16;93484.03;;;13.99
76895;BMP280;65855;42.030;13.078;2023-06-10T04:11:42;93490.91;;;13.99
76895;BMP280;65855;42.030;13.078;2023-06-10T04:14:08;93478.69;;;14.09
76895;BMP280;65855;42.030;13.078;2023-06-10T04:16:33;93480.75;;;14.07
76895;BMP280;65855;42.030;13.078;2023-06-10T04:19:00;93485.66;;;14.12
76895;BMP280;65855;42.030;13.078;2023-06-10T04:21:26;93480.00;;;14.07
76895;BMP280;65855;42.030;13.078;2023-06-10T04:23:51;93483.56;;;14.14
76895;BMP280;65855;42.030;13.078;2023-06-10T04:26:17;93486.72;;;14.28
76895;BMP280;65855;42.030;13.078;2023-06-10T04:28:43;93481.34;;;14.13
76895;BMP280;65855;42.030;13.078;2023-06-10T04:31:09;93485.53;;;14.17
76895;BMP280;65855;42.030;13.078;2023-06-10T04:33:35;93487.00;;;14.26
76895;BMP280;65855;42.030;13.078;2023-06-10T04:36:00;93482.22;;;14.42
76895;BMP280;65855;42.030;13.078;2023-06-10T04:38:26;93482.84;;;14.22
76895;BMP280;65855;42.030;13.078;2023-06-10T04:40:51;93476.88;;;14.18
76895;BMP280;65855;42.030;13.078;2023-06-10T04:43:17;93479.09;;;14.19
76895;BMP280;65855;42.030;13.078;2023-06-10T04:45:42;93478.06;;;14.12
76895;BMP280;65855;42.030;13.078;2023-06-10T04:48:11;93476.44;;;14.16
76895;BMP280;65855;42.030;13.078;2023-06-10T04:50:37;93477.59;;;14.35
76895;BMP280;65855;42.030;13.078;2023-06-10T04:53:02;93480.25;;;14.47
76895;BMP280;65855;42.030;13.078;2023-06-10T04:55:28;93472.94;;;14.45
76895;BMP280;65855;42.030;13.078;2023-06-10T04:57:53;93477.56;;;14.89
76895;BMP280;65855;42.030;13.078;2023-06-10T05:00:19;93480.03;;;15.14
76895;BMP280;65855;42.030;13.078;2023-06-10T05:02:44;93473.41;;;15.69
76895;BMP280;65855;42.030;13.078;2023-06-10T05:05:10;93479.97;;;15.90
76895;BMP280;65855;42.030;13.078;2023-06-10T05:07:36;93476.50;;;16.15
76895;BMP280;65855;42.030;13.078;2023-06-10T05:10:01;93469.53;;;16.24
76895;BMP280;65855;42.030;13.078;2023-06-10T05:12:28;93479.16;;;16.18
76895;BMP280;65855;42.030;13.078;2023-06-10T05:14:53;93476.44;;;16.23
76895;BMP280;65855;42.030;13.078;2023-06-10T05:17:19;93476.09;;;16.25
76895;BMP280;65855;42.030;13.078;2023-06-10T05:19:44;93472.63;;;16.29
76895;BMP280;65855;42.030;13.078;2023-06-10T05:22:09;93467.16;;;16.51
76895;BMP280;65855;42.030;13.078;2023-06-10T05:24:35;93464.78;;;16.66
76895;BMP280;65855;42.030;13.078;2023-06-10T05:27:00;93463.28;;;16.77
76895;BMP280;65855;42.030;13.078;2023-06-10T05:29:26;93452.25;;;16.73
76895;BMP280;65855;42.030;13.078;2023-06-10T05:31:51;93459.16;;;16.84
76895;BMP280;65855;42.030;13.078;2023-06-10T05:34:17;93457.13;;;16.89
76895;BMP280;65855;42.030;13.078;2023-06-10T05:36:43;93457.69;;;16.95
76895;BMP280;65855;42.030;13.078;2023-06-10T05:39:09;93452.25;;;16.96
76895;BMP280;65855;42.030;13.078;2023-06-10T05:41:35;93453.75;;;16.97
76895;BMP280;65855;42.030;13.078;2023-06-10T05:44:00;93450.25;;;17.02
76895;BMP280;65855;42.030;13.078;2023-06-10T05:46:26;93457.47;;;17.00
76895;BMP280;65855;42.030;13.078;2023-06-10T05:48:51;93456.53;;;17.16
76895;BMP280;65855;42.030;13.078;2023-06-10T05:51:17;93457.72;;;17.18
76895;BMP280;65855;42.030;13.078;2023-06-10T05:53:42;93456.19;;;17.29
76895;BMP280;65855;42.030;13.078;2023-06-10T05:56:08;93457.06;;;17.33
76895;BMP280;65855;42.030;13.078;2023-06-10T05:58:33;93457.06;;;17.09
76895;BMP280;65855;42.030;13.078;2023-06-10T06:00:59;93453.13;;;17.35
76895;BMP280;65855;42.030;13.078;2023-06-10T06:03:25;93456.19;;;17.53
76895;BMP280;65855;42.030;13.078;2023-06-10T06:05:50;93462.34;;;17.63
76895;BMP280;65855;42.030;13.078;2023-06-10T06:08:15;93471.03;;;17.62
76895;BMP280;65855;42.030;13.078;2023-06-10T06:10:44;93470.91;;;17.71
76895;BMP280;65855;42.030;13.078;2023-06-10T06:13:10;93464.72;;;17.95
76895;BMP280;65855;42.030;13.078;2023-06-10T06:15:35;93466.47;;;18.06
76895;BMP280;65855;42.030;13.078;2023-06-10T06:18:00;93455.53;;;18.33
76895;BMP280;65855;42.030;13.078;2023-06-10T06:20:26;93460.84;;;18.70
76895;BMP280;65855;42.030;13.078;2023-06-10T06:22:51;93460.03;;;19.12
76895;BMP280;65855;42.030;13.078;2023-06-10T06:25:17;93451.53;;;19.72
76895;BMP280;65855;42.030;13.078;2023-06-10T06:27:42;93442.31;;;19.19
76895;BMP280;65855;42.030;13.078;2023-06-10T06:30:08;93443.09;;;19.38
76895;BMP280;65855;42.030;13.078;2023-06-10T06:32:33;93443.38;;;20.22
76895;BMP280;65855;42.030;13.078;2023-06-10T06:34:59;93431.06;;;20.91
76895;BMP280;65855;42.030;13.078;2023-06-10T06:37:25;93436.44;;;21.08
76895;BMP280;65855;42.030;13.078;2023-06-10T06:39:51;93439.88;;;20.12
76895;BMP280;65855;42.030;13.078;2023-06-10T06:42:17;93427.25;;;20.81
76895;BMP280;65855;42.030;13.078;2023-06-10T06:44:43;93436.78;;;21.28
76895;BMP280;65855;42.030;13.078;2023-06-10T06:47:08;93436.47;;;21.59
76895;BMP280;65855;42.030;13.078;2023-06-10T06:49:34;93433.31;;;21.68
76895;BMP280;65855;42.030;13.078;2023-06-10T06:51:59;93430.13;;;21.78
76895;BMP280;65855;42.030;13.078;2023-06-10T06:54:25;93431.44;;;22.23
76895;BMP280;65855;42.030;13.078;2023-06-10T06:56:50;93440.38;;;22.36
76895;BMP280;65855;42.030;13.078;2023-06-10T06:59:15;93437.00;;;22.64
76895;BMP280;65855;42.030;13.078;2023-06-10T07:01:45;93432.69;;;22.75
76895;BMP280;65855;42.030;13.078;2023-06-10T07:04:11;93431.81;;;22.61
76895;BMP280;65855;42.030;13.078;2023-06-10T07:06:37;93429.19;;;22.90
76895;BMP280;65855;42.030;13.078;2023-06-10T07:09:03;93428.50;;;23.00
76895;BMP280;65855;42.030;13.078;2023-06-10T07:11:29;93426.19;;;22.85
76895;BMP280;65855;42.030;13.078;2023-06-10T07:13:54;93425.25;;;22.67
76895;BMP280;65855;42.030;13.078;2023-06-10T07:16:20;93433.75;;;23.13
76895;BMP280;65855;42.030;13.078;2023-06-10T07:18:46;93425.28;;;23.62
76895;BMP280;65855;42.030;13.078;2023-06-10T07:21:12;93427.66;;;23.98
76895;BMP280;65855;42.030;13.078;2023-06-10T07:23:37;93437.28;;;24.11
76895;BMP280;65855;42.030;13.078;2023-06-10T07:26:02;93429.97;;;24.13
76895;BMP280;65855;42.030;13.078;2023-06-10T07:28:28;93439.00;;;23.80
76895;BMP280;65855;42.030;13.078;2023-06-10T07:30:53;93433.44;;;23.75
76895;BMP280;65855;42.030;13.078;2023-06-10T07:33:19;93428.72;;;23.87
76895;BMP280;65855;42.030;13.078;2023-06-10T07:35:44;93434.97;;;23.86
76895;BMP280;65855;42.030;13.078;2023-06-10T07:38:10;93425.47;;;24.00
76895;BMP280;65855;42.030;13.078;2023-06-10T07:40:35;93425.66;;;23.64
76895;BMP280;65855;42.030;13.078;2023-06-10T07:43:01;93427.50;;;23.61
76895;BMP280;65855;42.030;13.078;2023-06-10T07:45:26;93437.34;;;23.52
76895;BMP280;65855;42.030;13.078;2023-06-10T07:47:51;93431.00;;;23.39
76895;BMP280;65855;42.030;13.078;2023-06-10T07:50:17;93426.19;;;22.88
76895;BMP280;65855;42.030;13.078;2023-06-10T07:52:43;93433.81;;;23.73
76895;BMP280;65855;42.030;13.078;2023-06-10T07:55:08;93429.59;;;24.15
76895;BMP280;65855;42.030;13.078;2023-06-10T07:57:34;93430.88;;;25.20
76895;BMP280;65855;42.030;13.078;2023-06-10T08:00:02;93432.00;;;25.43
76895;BMP280;65855;42.030;13.078;2023-06-10T08:02:29;93429.22;;;24.16
76895;BMP280;65855;42.030;13.078;2023-06-10T08:04:55;93433.75;;;25.77
76895;BMP280;65855;42.030;13.078;2023-06-10T08:07:21;93430.13;;;25.61
76895;BMP280;65855;42.030;13.078;2023-06-10T08:09:47;93434.69;;;27.02
76895;BMP280;65855;42.030;13.078;2023-06-10T08:12:13;93423.16;;;27.06
76895;BMP280;65855;42.030;13.078;2023-06-10T08:14:38;93424.19;;;27.19
76895;BMP280;65855;42.030;13.078;2023-06-10T08:17:04;93432.38;;;27.57
76895;BMP280;65855;42.030;13.078;2023-06-10T08:19:31;93417.56;;;27.14
76895;BMP280;65855;42.030;13.078;2023-06-10T08:21:56;93433.97;;;27.44
76895;BMP280;65855;42.030;13.078;2023-06-10T08:24:22;93426.81;;;26.58
76895;BMP280;65855;42.030;13.078;2023-06-10T08:26:47;93425.75;;;27.09
76895;BMP280;65855;42.030;13.078;2023-06-10T08:29:13;93427.59;;;27.05
76895;BMP280;65855;42.030;13.078;2023-06-10T08:31:43;93426.94;;;27.45
76895;BMP280;65855;42.030;13.078;2023-06-10T08:34:09;93433.59;;;27.85
76895;BMP280;65855;42.030;13.078;2023-06-10T08:36:34;93429.09;;;28.22
76895;BMP280;65855;42.030;13.078;2023-06-10T08:39:01;93425.50;;;28.13
76895;BMP280;65855;42.030;13.078;2023-06-10T08:41:28;93428.34;;;27.92
76895;BMP280;65855;42.030;13.078;2023-06-10T08:44:26;93426.78;;;28.31
76895;BMP280;65855;42.030;13.078;2023-06-10T08:46:53;93422.38;;;27.95
76895;BMP280;65855;42.030;13.078;2023-06-10T08:49:22;93425.31;;;27.97
76895;BMP280;65855;42.030;13.078;2023-06-10T08:51:55;93432.31;;;28.00
76895;BMP280;65855;42.030;13.078;2023-06-10T08:54:25;93436.69;;;28.36
76895;BMP280;65855;42.030;13.078;2023-06-10T08:56:51;93433.53;;;29.06
76895;BMP280;65855;42.030;13.078;2023-06-10T08:59:16;93432.97;;;28.96
76895;BMP280;65855;42.030;13.078;2023-06-10T09:01:44;93431.75;;;28.48
76895;BMP280;65855;42.030;13.078;2023-06-10T09:04:10;93437.03;;;28.08
76895;BMP280;65855;42.030;13.078;2023-06-10T09:06:36;93440.38;;;25.92
76895;BMP280;65855;42.030;13.078;2023-06-10T09:09:05;93445.09;;;26.17
76895;BMP280;65855;42.030;13.078;2023-06-10T09:11:31;93443.31;;;26.07
76895;BMP280;65855;42.030;13.078;2023-06-10T09:13:57;93444.28;;;26.34
76895;BMP280;65855;42.030;13.078;2023-06-10T09:16:23;93441.13;;;24.58
76895;BMP280;65855;42.030;13.078;2023-06-10T09:18:49;93437.06;;;24.51
76895;BMP280;65855;42.030;13.078;2023-06-10T09:21:23;93441.47;;;24.54
76895;BMP280;65855;42.030;13.078;2023-06-10T09:23:49;93434.47;;;25.88
76895;BMP280;65855;42.030;13.078;2023-06-10T09:26:14;93432.09;;;26.34
76895;BMP280;65855;42.030;13.078;2023-06-10T09:28:52;93437.66;;;26.33
76895;BMP280;65855;42.030;13.078;2023-06-10T09:31:27;93441.94;;;26.60
76895;BMP280;65855;42.030;13.078;2023-06-10T09:34:04;93446.41;;;26.52
76895;BMP280;65855;42.030;13.078;2023-06-10T09:36:32;93440.31;;;26.19
76895;BMP280;65855;42.030;13.078;2023-06-10T09:38:58;93443.75;;;25.72
76895;BMP280;65855;42.030;13.078;2023-06-10T09:41:32;93444.03;;;26.08
76895;BMP280;65855;42.030;13.078;2023-06-10T09:43:58;93441.72;;;26.98
76895;BMP280;65855;42.030;13.078;2023-06-10T09:46:23;93438.63;;;25.03
76895;BMP280;65855;42.030;13.078;2023-06-10T09:48:49;93437.53;;;24.97
76895;BMP280;65855;42.030;13.078;2023-06-10T09:51:15;93435.22;;;25.78
76895;BMP280;65855;42.030;13.078;2023-06-10T09:53:42;93438.56;;;26.73
76895;BMP280;65855;42.030;13.078;2023-06-10T09:56:07;93435.66;;;25.18
76895;BMP280;65855;42.030;13.078;2023-06-10T09:58:37;93437.91;;;25.44
76895;BMP280;65855;42.030;13.078;2023-06-10T10:01:08;93436.22;;;26.96
76895;BMP280;65855;42.030;13.078;2023-06-10T10:03:43;93431.66;;;28.25
76895;BMP280;65855;42.030;13.078;2023-06-10T10:06:09;93429.75;;;25.62
76895;BMP280;65855;42.030;13.078;2023-06-10T10:08:34;93430.84;;;25.68
76895;BMP280;65855;42.030;13.078;2023-06-10T10:11:01;93427.53;;;26.66
76895;BMP280;65855;42.030;13.078;2023-06-10T10:13:28;93427.81;;;25.94
76895;BMP280;65855;42.030;13.078;2023-06-10T10:15:56;93421.56;;;26.72
76895;BMP280;65855;42.030;13.078;2023-06-10T10:18:29;93429.16;;;28.19
76895;BMP280;65855;42.030;13.078;2023-06-10T10:20:57;93425.72;;;25.13
76895;BMP280;65855;42.030;13.078;2023-06-10T10:23:31;93434.19;;;26.63
76895;BMP280;65855;42.030;13.078;2023-06-10T10:26:00;93421.59;;;25.81
76895;BMP280;65855;42.030;13.078;2023-06-10T10:28:36;93409.66;;;27.35
76895;BMP280;65855;42.030;13.078;2023-06-10T10:31:08;93414.16;;;28.29
76895;BMP280;65855;42.030;13.078;2023-06-10T10:33:51;93408.25;;;29.10
76895;BMP280;65855;42.030;13.078;2023-06-10T10:36:20;93412.22;;;28.92
76895;BMP280;65855;42.030;13.078;2023-06-10T10:38:47;93412.53;;;26.33
76895;BMP280;65855;42.030;13.078;2023-06-10T10:41:14;93418.06;;;26.35
76895;BMP280;65855;42.030;13.078;2023-06-10T10:43:40;93414.25;;;26.57
76895;BMP280;65855;42.030;13.078;2023-06-10T10:46:11;93424.19;;;28.31
76895;BMP280;65855;42.030;13.078;2023-06-10T10:48:38;93406.56;;;29.23
76895;BMP280;65855;42.030;13.078;2023-06-10T10:51:04;93415.53;;;29.41
76895;BMP280;65855;42.030;13.078;2023-06-10T10:53:29;93396.63;;;30.01
76895;BMP280;65855;42.030;13.078;2023-06-10T10:56:06;93397.03;;;29.81
76895;BMP280;65855;42.030;13.078;2023-06-10T10:58:34;93398.50;;;30.20
76895;BMP280;65855;42.030;13.078;2023-06-10T11:01:10;93401.38;;;29.45
76895;BMP280;65855;42.030;13.078;2023-06-10T11:03:42;93399.31;;;30.17
76895;BMP280;65855;42.030;13.078;2023-06-10T11:06:13;93407.06;;;27.35
76895;BMP280;65855;42.030;13.078;2023-06-10T11:11:25;93401.25;;;27.17
76895;BMP280;65855;42.030;13.078;2023-06-10T11:16:28;93395.16;;;28.95
76895;BMP280;65855;42.030;13.078;2023-06-10T11:18:54;93405.25;;;26.82
76895;BMP280;65855;42.030;13.078;2023-06-10T11:21:20;93390.84;;;26.14
76895;BMP280;65855;42.030;13.078;2023-06-10T11:23:45;93389.06;;;28.78
76895;BMP280;65855;42.030;13.078;2023-06-10T11:31:24;93394.69;;;27.89
76895;BMP280;65855;42.030;13.078;2023-06-10T11:36:20;93378.50;;;29.60
76895;BMP280;65855;42.030;13.078;2023-06-10T11:38:45;93374.13;;;30.49
76895;BMP280;65855;42.030;13.078;2023-06-10T11:41:11;93372.53;;;31.02
76895;BMP280;65855;42.030;13.078;2023-06-10T11:43:42;93372.25;;;32.15
76895;BMP280;65855;42.030;13.078;2023-06-10T11:46:07;93374.34;;;32.20
76895;BMP280;65855;42.030;13.078;2023-06-10T11:48:33;93376.72;;;32.14
76895;BMP280;65855;42.030;13.078;2023-06-10T11:50:59;93365.81;;;32.56
76895;BMP280;65855;42.030;13.078;2023-06-10T11:53:25;93356.53;;;31.63
76895;BMP280;65855;42.030;13.078;2023-06-10T11:55:50;93361.84;;;32.39
76895;BMP280;65855;42.030;13.078;2023-06-10T11:58:21;93357.28;;;31.47
76895;BMP280;65855;42.030;13.078;2023-06-10T12:00:48;93361.31;;;31.20
76895;BMP280;65855;42.030;13.078;2023-06-10T12:03:15;93364.53;;;27.69
76895;BMP280;65855;42.030;13.078;2023-06-10T12:05:56;93358.28;;;27.99
76895;BMP280;65855;42.030;13.078;2023-06-10T12:08:23;93355.00;;;28.99
76895;BMP280;65855;42.030;13.078;2023-06-10T12:10:48;93354.81;;;25.66
76895;BMP280;65855;42.030;13.078;2023-06-10T12:13:14;93349.31;;;26.95
76895;BMP280;65855;42.030;13.078;2023-06-10T12:15:40;93339.56;;;27.49
76895;BMP280;65855;42.030;13.078;2023-06-10T12:18:05;93345.84;;;28.13
76895;BMP280;65855;42.030;13.078;2023-06-10T12:20:32;93351.81;;;30.13
76895;BMP280;65855;42.030;13.078;2023-06-10T12:23:00;93340.94;;;31.31
76895;BMP280;65855;42.030;13.078;2023-06-10T12:25:27;93332.41;;;30.84
76895;BMP280;65855;42.030;13.078;2023-06-10T12:27:55;93332.75;;;31.01
76895;BMP280;65855;42.030;13.078;2023-06-10T12:30:22;93340.50;;;30.54
76895;BMP280;65855;42.030;13.078;2023-06-10T12:32:48;93335.91;;;29.73
76895;BMP280;65855;42.030;13.078;2023-06-10T12:35:17;93326.72;;;31.20
76895;BMP280;65855;42.030;13.078;2023-06-10T12:38:01;93324.88;;;32.78
76895;BMP280;65855;42.030;13.078;2023-06-10T12:40:31;93319.78;;;33.32
76895;BMP280;65855;42.030;13.078;2023-06-10T12:42:57;93316.19;;;33.38
76895;BMP280;65855;42.030;13.078;2023-06-10T12:45:33;93309.69;;;33.10
76895;BMP280;65855;42.030;13.078;2023-06-10T12:50:31;93316.94;;;33.60
76895;BMP280;65855;42.030;13.078;2023-06-10T12:52:56;93309.03;;;33.93
76895;BMP280;65855;42.030;13.078;2023-06-10T12:55:22;93313.91;;;32.83
76895;BMP280;65855;42.030;13.078;2023-06-10T12:57:50;93311.44;;;29.51
76895;BMP280;65855;42.030;13.078;2023-06-10T13:00:17;93315.25;;;29.66
76895;BMP280;65855;42.030;13.078;2023-06-10T13:02:43;93310.09;;;28.53
76895;BMP280;65855;42.030;13.078;2023-06-10T13:05:08;93318.09;;;26.69
76895;BMP280;65855;42.030;13.078;2023-06-10T13:07:33;93323.69;;;27.47
76895;BMP280;65855;42.030;13.078;2023-06-10T13:09:59;93321.28;;;27.29
76895;BMP280;65855;42.030;13.078;2023-06-10T13:12:26;93314.81;;;27.44
76895;BMP280;65855;42.030;13.078;2023-06-10T13:14:54;93297.69;;;26.31
76895;BMP280;65855;42.030;13.078;2023-06-10T13:17:20;93301.56;;;28.27
76895;BMP280;65855;42.030;13.078;2023-06-10T13:19:46;93299.28;;;29.64
76895;BMP280;65855;42.030;13.078;2023-06-10T13:22:11;93298.34;;;31.65
76895;BMP280;65855;42.030;13.078;2023-06-10T13:24:39;93292.50;;;33.21
76895;BMP280;65855;42.030;13.078;2023-06-10T13:27:04;93277.16;;;33.65
76895;BMP280;65855;42.030;13.078;2023-06-10T13:29:31;93281.16;;;33.57
76895;BMP280;65855;42.030;13.078;2023-06-10T13:31:57;93277.03;;;33.47
76895;BMP280;65855;42.030;13.078;2023-06-10T13:34:22;93278.72;;;32.50
76895;BMP280;65855;42.030;13.078;2023-06-10T13:36:48;93276.56;;;31.72
76895;BMP280;65855;42.030;13.078;2023-06-10T13:39:13;93278.38;;;31.59
76895;BMP280;65855;42.030;13.078;2023-06-10T13:41:40;93272.50;;;31.95
76895;BMP280;65855;42.030;13.078;2023-06-10T13:44:06;93270.16;;;30.42
76895;BMP280;65855;42.030;13.078;2023-06-10T13:46:32;93275.09;;;30.21
76895;BMP280;65855;42.030;13.078;2023-06-10T13:48:57;93276.56;;;29.49
76895;BMP280;65855;42.030;13.078;2023-06-10T13:51:23;93268.63;;;29.75
76895;BMP280;65855;42.030;13.078;2023-06-10T13:53:48;93272.13;;;31.29
76895;BMP280;65855;42.030;13.078;2023-06-10T13:56:13;93259.00;;;33.28
76895;BMP280;65855;42.030;13.078;2023-06-10T13:58:39;93261.78;;;31.93
76895;BMP280;65855;42.030;13.078;2023-06-10T14:01:07;93268.75;;;33.70
76895;BMP280;65855;42.030;13.078;2023-06-10T14:03:33;93256.97;;;33.11
76895;BMP280;65855;42.030;13.078;2023-06-10T14:05:58;93267.03;;;33.76
76895;BMP280;65855;42.030;13.078;2023-06-10T14:08:24;93264.88;;;33.74
76895;BMP280;65855;42.030;13.078;2023-06-10T14:10:49;93257.66;;;35.21